Terminal Aerodrome Forecast
Issued by NWS

Home | Current Version | Previous Version | Text Only | Print | Product List | Glossary On
Versions: 1 2 3 4 5 6 7 8 9 10 11 12 13 14 15 16 17 18 19 20 21 22 23 24 25 26 27 28 29 30 31 32 33 34
193
FTAK31 PANC 211721
TAFATK
TAF
PATK 211721Z 2118/2218 35005KT 6SM -SN BR OVC045
      TEMPO 2118/2122 2SM -SN BR OVC030
     FM212200 01004KT P6SM VCSH SCT025 BKN035
     FM220600 36003KT 5SM -SN BR OVC025=

USA.gov is the U.S. government's official web portal to all federal, state and local government web resources and services.